Bei Facebook empfehlenBei Twitter postenGoogle plusPinterest

Das Wetter im Erzgebirge am 19.10.2015

Wetter und Klima am 19.10.2015 Holzhau im Erzgebirge (630m ü.NN)
Letzte gemessene Temperatur und Uhrzeit der Messung23:45:00 Uhr0.80 °C
Temperatur (Maximum / Höchstwert) und Uhrzeit der Messung12:15:00 Uhr8.80 °C
Temperatur (Minimum / Tiefstwert) und Uhrzeit der Messung23:45:000.80 °C
Errechneter Absolutwert der Temperaturschwankungen zwischen Tmin und Tmax des Tages8.00 K
Errechnete Tagesmitteltemperatur4.21354 °C
Gesamt - Niederschlag des Tages (in flüssiger Form)0.00 Liter / m²
Luftdruck (Maximum / Höchstwert) und Zeitpunkt der Messung22:30:00 Uhr1017.10 hPa
Luftdruck (Minimum / Tiefstwert) und Zeitpunkt der Messung04:30:00 Uhr1014.10 hPa
Errechneter Absolutwert der Luftdruckschwankungen des Tages3.00 hPa
Höchste gemessene Windgeschwindigkeit und Uhrzeit der Messung18:00:00 Uhr2.16 km/h
Errechnete Windhäufigkeit in Relation zu den Messwerten des Tages2.08333 %
Niedrigste Windkühle (Windchill) und Zeitpunkt der Messung23:45:00 Uhr0.80 °C
Taupunkt (Maximum / Höchstwert) und Uhrzeit der Messung12:15:00 Uhr8.20 °C
Taupunkt (Minimum / Tiefstwert) und Uhrzeit der Messung23:45:00-0.30 °C
Anzahl der automatisch eingelesenen Messwerte 96

Detaillierte Wetter- und Klima- Messwerte für den 19.10.2015 in Holzhau im Erzgebirge (630m ü.NN)
ZeitTemperaturLuftdruckRel. LuftfeuchteWindWindrichtungWindchillTaupunktNiederschlag l/m²
23:45:000.80 °C1016.80 hPa92.00 %-0.30 °C 
23:30:001.30 °C1016.90 hPa92.00 %0.10 °C 
23:15:002.10 °C1016.90 hPa92.00 %0.90 °C 
23:00:002.70 °C1016.90 hPa93.00 %1.70 °C 
22:45:002.90 °C1017.00 hPa93.00 %1.90 °C 
22:30:003.10 °C1017.10 hPa93.00 %2.10 °C 
22:15:003.10 °C1016.90 hPa93.00 %2.10 °C 
22:00:002.90 °C1017.10 hPa93.00 %1.90 °C 
21:45:002.80 °C1016.90 hPa92.00 %1.60 °C 
21:30:002.60 °C1017.00 hPa92.00 %1.40 °C 
21:15:002.20 °C1017.00 hPa92.00 %1.00 °C 
21:00:002.30 °C1016.70 hPa91.00 %1.00 °C 
20:45:002.90 °C1016.60 hPa91.00 %1.60 °C 
20:30:003.40 °C1016.70 hPa91.00 %2.10 °C 
20:15:003.60 °C1016.60 hPa91.00 %2.30 °C 
20:00:003.70 °C1016.60 hPa91.00 %2.40 °C 
19:45:004.10 °C1016.60 hPa90.00 %2.60 °C 
19:30:004.60 °C1016.40 hPa90.00 %3.10 °C 
19:15:005.00 °C1016.50 hPa90.00 %3.50 °C 
19:00:005.30 °C1016.20 hPa90.00 %3.80 °C 
18:45:005.40 °C1016.10 hPa90.00 %3.90 °C 
18:30:005.60 °C1016.00 hPa89.00 %3.90 °C 
18:15:005.90 °C1015.80 hPa89.00 %4.20 °C 
18:00:006.10 °C1015.50 hPa89.00 %2.16 km/hWSW6.10 °C4.40 °C 
17:45:006.40 °C1015.50 hPa88.00 %4.60 °C 
17:30:006.80 °C1015.30 hPa87.00 %4.80 °C 
17:15:007.30 °C1015.20 hPa87.00 %5.30 °C 
17:00:007.90 °C1015.40 hPa87.00 %5.90 °C 
16:45:008.40 °C1015.30 hPa88.00 %6.50 °C 
16:30:008.50 °C1015.20 hPa89.00 %6.80 °C 
16:15:008.20 °C1015.30 hPa90.00 %6.70 °C 
16:00:007.50 °C1015.40 hPa90.00 %6.00 °C 
15:45:007.40 °C1015.50 hPa90.00 %5.90 °C 
15:30:007.60 °C1015.60 hPa90.00 %6.10 °C 
15:15:007.90 °C1015.70 hPa91.00 %6.50 °C 
15:00:007.90 °C1015.50 hPa91.00 %6.50 °C 
14:45:007.80 °C1015.50 hPa91.00 %6.40 °C 
14:30:007.80 °C1015.50 hPa91.00 %6.40 °C 
14:15:008.20 °C1015.70 hPa91.00 %6.80 °C 
14:00:008.60 °C1015.60 hPa92.00 %7.40 °C 
13:45:008.30 °C1015.60 hPa93.00 %7.20 °C 
13:30:008.40 °C1015.80 hPa93.00 %7.30 °C 
13:15:008.40 °C1015.80 hPa94.00 %7.50 °C 
13:00:008.30 °C1015.80 hPa94.00 %7.40 °C 
12:45:008.30 °C1016.00 hPa95.00 %1.08 km/hSSW8.30 °C7.50 °C 
12:30:008.20 °C1016.10 hPa95.00 %7.40 °C 
12:15:008.80 °C1016.10 hPa96.00 %8.20 °C 
12:00:007.90 °C1016.10 hPa97.00 %7.50 °C 
11:45:007.30 °C1015.90 hPa96.00 %6.70 °C 
11:30:007.60 °C1015.90 hPa96.00 %7.00 °C 
11:15:007.40 °C1015.80 hPa97.00 %7.00 °C 
11:00:007.00 °C1015.70 hPa97.00 %6.60 °C 
10:45:005.90 °C1015.60 hPa97.00 %5.50 °C 
10:30:005.30 °C1015.70 hPa96.00 %4.70 °C 
10:15:004.60 °C1015.40 hPa96.00 %4.00 °C 
10:00:004.20 °C1015.40 hPa96.00 %3.60 °C 
09:45:003.90 °C1015.20 hPa96.00 %3.30 °C 
09:30:003.50 °C1015.20 hPa96.00 %2.90 °C 
09:15:003.30 °C1015.10 hPa96.00 %2.70 °C 
09:00:003.10 °C1015.00 hPa96.00 %2.50 °C 
08:45:002.90 °C1014.80 hPa96.00 %2.30 °C 
08:30:002.80 °C1014.70 hPa96.00 %2.20 °C 
08:15:002.60 °C1014.70 hPa96.00 %2.00 °C 
08:00:002.40 °C1014.70 hPa96.00 %1.80 °C 
07:45:002.40 °C1014.70 hPa96.00 %1.80 °C 
07:30:002.30 °C1014.50 hPa96.00 %1.70 °C 
07:15:002.20 °C1014.30 hPa96.00 %1.60 °C 
07:00:002.10 °C1014.40 hPa96.00 %1.50 °C 
06:45:001.90 °C1014.30 hPa95.00 %1.20 °C 
06:30:001.80 °C1014.30 hPa95.00 %1.10 °C 
06:15:001.80 °C1014.60 hPa95.00 %1.10 °C 
06:00:001.70 °C1014.70 hPa95.00 %1.00 °C 
05:45:001.80 °C1014.20 hPa95.00 %1.10 °C 
05:30:001.90 °C1014.20 hPa95.00 %1.20 °C 
05:15:001.90 °C1014.20 hPa95.00 %1.20 °C 
05:00:001.80 °C1014.40 hPa95.00 %1.10 °C 
04:45:001.60 °C1014.40 hPa95.00 %0.90 °C 
04:30:001.60 °C1014.10 hPa95.00 %0.90 °C 
04:15:001.60 °C1014.30 hPa95.00 %0.90 °C 
04:00:001.60 °C1014.40 hPa95.00 %0.90 °C 
03:45:001.60 °C1014.40 hPa95.00 %0.90 °C 
03:30:001.60 °C1014.40 hPa95.00 %0.90 °C 
03:15:001.70 °C1014.50 hPa95.00 %1.00 °C 
03:00:001.80 °C1014.40 hPa95.00 %1.10 °C 
02:45:001.80 °C1014.40 hPa95.00 %1.10 °C 
02:30:001.60 °C1014.50 hPa95.00 %0.90 °C 
02:15:001.60 °C1014.40 hPa95.00 %0.90 °C 
02:00:001.60 °C1014.40 hPa95.00 %0.90 °C 
01:45:001.60 °C1014.60 hPa95.00 %0.90 °C 
01:30:001.60 °C1014.50 hPa95.00 %0.90 °C 
01:15:001.40 °C1014.90 hPa95.00 %0.70 °C 
01:00:001.50 °C1014.80 hPa95.00 %0.80 °C 
00:45:001.60 °C1014.80 hPa94.00 %0.70 °C 
00:30:001.50 °C1014.80 hPa94.00 %0.60 °C 
00:15:001.40 °C1014.80 hPa94.00 %0.50 °C 
00:00:001.60 °C1014.80 hPa94.00 %0.70 °C 

Permanenter Link zu dieser Seite: Wetter im Erzgebirge am 19.10.2015
Performance-Info: Die Erstellung der Seite / Statistik(en) / Tabelle(n) erforderte 5 Datenbankserver-Abfrage(n) und dauerte 122 Millisekunden. (Dieser Messwert ist von der Gesamt-Auslastung des Servers abhängig.)
Erzgebirge - Wetter | Erzgebirge - Wetter (Mobilgeräte) | Komplette Klimadatenbank